Time;durP1;ratioP1;P1;durP2;ratioP2;P2;SDS_P1;SDS_P2;PMS_P1;PMS_P2;Temp;Humidity;BMP_temperature;BMP_pressure;BME280_temperature;BME280_humidity;BME280_pressure;Samples;Min_cycle;Max_cycle;Signal;HPM_P1;HPM_P2
2023/04/16 00:01:28;;;;;;;9.20;4.40;;;;;;;3.38;100.00;101376.81;105837;1254;61170;-55
2023/04/16 00:03:56;;;;;;;9.10;4.90;;;;;;;3.37;100.00;101377.73;105798;1258;61033;-54
2023/04/16 00:06:26;;;;;;;14.90;4.30;;;;;;;3.33;100.00;101379.91;105708;1254;75366;-56
2023/04/16 00:08:54;;;;;;;11.00;5.70;;;;;;;3.30;100.00;101382.51;105646;1257;67604;-56
2023/04/16 00:11:23;;;;;;;7.10;3.80;;;;;;;3.29;100.00;101382.77;105359;1254;73387;-54
2023/04/16 00:13:52;;;;;;;8.10;4.00;;;;;;;3.29;100.00;101382.10;105534;1254;61416;-55
2023/04/16 00:16:21;;;;;;;9.30;4.20;;;;;;;3.25;100.00;101384.79;105621;1256;60835;-55
2023/04/16 00:18:50;;;;;;;8.90;4.30;;;;;;;3.21;100.00;101384.86;105823;1257;74530;-59
2023/04/16 00:21:19;;;;;;;13.50;4.60;;;;;;;3.17;100.00;101385.28;105766;1259;67058;-55
2023/04/16 00:23:48;;;;;;;9.60;4.20;;;;;;;3.14;100.00;101387.22;105833;1259;73771;-55
2023/04/16 00:26:16;;;;;;;7.00;4.80;;;;;;;3.12;100.00;101389.96;105488;1254;60638;-55
2023/04/16 00:28:45;;;;;;;9.30;4.80;;;;;;;3.09;100.00;101387.77;105848;1258;61174;-56
2023/04/16 00:31:13;;;;;;;8.60;4.70;;;;;;;3.08;100.00;101389.39;105421;1254;73638;-54
2023/04/16 00:33:43;;;;;;;9.20;4.10;;;;;;;3.07;100.00;101391.33;105735;1254;69117;-55
2023/04/16 00:36:12;;;;;;;8.70;4.60;;;;;;;3.04;100.00;101390.49;105655;1260;73200;-56
2023/04/16 00:38:41;;;;;;;8.80;5.20;;;;;;;3.03;100.00;101391.13;105687;1254;60357;-55
2023/04/16 00:41:10;;;;;;;8.40;5.10;;;;;;;3.01;100.00;101391.41;105719;1254;61638;-55
2023/04/16 00:43:38;;;;;;;7.50;4.20;;;;;;;3.00;100.00;101390.96;105855;1257;74357;-56
2023/04/16 00:46:07;;;;;;;10.10;4.60;;;;;;;2.97;100.00;101391.00;105595;1254;67052;-55
2023/04/16 00:48:36;;;;;;;10.10;4.90;;;;;;;2.94;100.00;101385.52;105641;1254;75042;-55
2023/04/16 00:51:06;;;;;;;8.60;4.50;;;;;;;2.91;100.00;101385.40;105403;1263;60505;-55
2023/04/16 00:53:35;;;;;;;7.50;4.00;;;;;;;2.89;100.00;101381.06;105617;1260;60468;-59
2023/04/16 00:56:05;;;;;;;9.00;4.20;;;;;;;2.87;100.00;101382.08;105605;1254;74500;-56
2023/04/16 00:58:35;;;;;;;7.60;3.90;;;;;;;2.84;100.00;101382.82;105566;1256;68053;-56
2023/04/16 01:01:04;;;;;;;6.10;4.20;;;;;;;2.81;100.00;101386.64;105765;1254;74314;-56
2023/04/16 01:03:38;;;;;;;5.70;3.90;;;;;;;2.80;100.00;101385.33;105901;1254;62690;-57
2023/04/16 01:06:07;;;;;;;9.30;4.80;;;;;;;2.78;100.00;101384.93;105558;1254;61642;-57
2023/04/16 01:08:35;;;;;;;8.00;4.00;;;;;;;2.78;100.00;101387.53;105348;1259;75159;-57
2023/04/16 01:11:04;;;;;;;10.40;4.20;;;;;;;2.77;100.00;101386.92;105705;1256;67688;-56
2023/04/16 01:13:37;;;;;;;10.30;4.60;;;;;;;2.75;100.00;101387.70;105839;1260;74179;-59
2023/04/16 01:16:07;;;;;;;9.00;4.00;;;;;;;2.71;100.00;101390.72;105624;1259;61733;-55
2023/04/16 01:18:37;;;;;;;7.60;4.10;;;;;;;2.68;100.00;101390.92;105379;1262;60916;-56
2023/04/16 01:21:05;;;;;;;9.20;4.60;;;;;;;2.65;100.00;101389.05;105716;1254;74710;-56
2023/04/16 01:23:35;;;;;;;7.50;4.50;;;;;;;2.63;100.00;101387.99;105756;1256;66937;-59
2023/04/16 01:26:03;;;;;;;8.60;5.30;;;;;;;2.61;100.00;101389.67;105574;1257;74258;-56
2023/04/16 01:28:32;;;;;;;9.40;4.60;;;;;;;2.58;100.00;101391.22;105579;1259;61612;-55
2023/04/16 01:31:01;;;;;;;7.40;4.30;;;;;;;2.57;100.00;101387.05;105585;1254;61701;-56
2023/04/16 01:33:42;;;;;;;9.40;4.80;;;;;;;2.55;100.00;101392.48;105401;1256;73013;-56
2023/04/16 01:36:12;;;;;;;10.70;5.20;;;;;;;2.52;100.00;101390.77;105424;1260;68606;-56
2023/04/16 01:38:41;;;;;;;10.50;4.50;;;;;;;2.52;100.00;101392.56;105725;1254;73092;-55
2023/04/16 01:41:09;;;;;;;8.80;4.80;;;;;;;2.49;100.00;101396.35;105645;1254;62933;-57
2023/04/16 01:43:38;;;;;;;10.60;4.70;;;;;;;2.47;100.00;101394.93;105523;1254;61900;-56
2023/04/16 01:46:17;;;;;;;8.70;5.10;;;;;;;2.45;100.00;101392.62;105750;1256;75104;-55
2023/04/16 01:48:46;;;;;;;9.20;4.70;;;;;;;2.43;100.00;101399.80;105379;1254;68612;-55
2023/04/16 01:51:14;;;;;;;8.60;5.10;;;;;;;2.43;100.00;101396.58;106024;1258;74168;-59
2023/04/16 01:53:42;;;;;;;15.60;5.40;;;;;;;2.41;100.00;101394.26;105457;1254;62547;-56
2023/04/16 01:56:11;;;;;;;7.90;4.50;;;;;;;2.42;100.00;101401.10;105606;1254;60601;-55
2023/04/16 01:58:41;;;;;;;10.40;5.10;;;;;;;2.42;100.00;101402.09;105629;1256;75269;-55
2023/04/16 02:01:10;;;;;;;8.70;5.60;;;;;;;2.45;100.00;101400.21;105453;1254;68455;-59
2023/04/16 02:03:39;;;;;;;10.10;5.30;;;;;;;2.47;100.00;101402.11;105283;1262;74419;-56
2023/04/16 02:06:08;;;;;;;10.30;5.00;;;;;;;2.50;100.00;101403.66;105464;1255;62644;-55
2023/04/16 02:08:37;;;;;;;14.60;5.40;;;;;;;2.52;100.00;101401.77;105654;1254;60767;-55
2023/04/16 02:11:06;;;;;;;8.80;4.80;;;;;;;2.55;100.00;101401.59;105980;1254;75422;-58
2023/04/16 02:13:35;;;;;;;9.70;5.20;;;;;;;2.58;100.00;101403.76;105625;1254;68329;-56
2023/04/16 02:16:05;;;;;;;8.90;5.00;;;;;;;2.63;100.00;101402.78;105635;1254;74352;-56
2023/04/16 02:18:55;;;;;;;8.00;4.40;;;;;;;2.63;100.00;101403.05;105458;1254;62470;-59
2023/04/16 02:21:24;;;;;;;12.60;5.60;;;;;;;2.70;100.00;101400.58;105328;1260;60924;-56
2023/04/16 02:23:53;;;;;;;9.50;5.00;;;;;;;2.77;100.00;101403.04;105490;1259;74689;-56
2023/04/16 02:26:27;;;;;;;12.60;5.40;;;;;;;2.81;100.00;101400.48;105691;1255;68360;-56
2023/04/16 02:28:59;;;;;;;8.30;4.30;;;;;;;2.84;100.00;101396.71;105366;1260;74134;-59
2023/04/16 02:31:32;;;;;;;8.40;4.90;;;;;;;2.86;100.00;101397.41;105736;1259;61653;-55
2023/04/16 02:34:01;;;;;;;7.50;5.20;;;;;;;2.89;100.00;101402.00;105644;1256;61096;-55
2023/04/16 02:36:30;;;;;;;10.30;5.10;;;;;;;2.91;100.00;101402.92;105772;1258;73688;-55
2023/04/16 02:38:59;;;;;;;8.10;4.70;;;;;;;2.90;100.00;101403.68;105729;1254;68015;-57
2023/04/16 02:41:27;;;;;;;9.90;4.60;;;;;;;2.92;100.00;101403.38;105719;1259;73110;-55
2023/04/16 02:43:56;;;;;;;7.70;4.70;;;;;;;2.96;100.00;101407.57;105621;1254;62827;-55
2023/04/16 02:46:25;;;;;;;9.10;5.00;;;;;;;3.01;100.00;101412.76;105710;1254;60778;-56
2023/04/16 02:48:54;;;;;;;10.70;5.10;;;;;;;3.03;100.00;101410.48;105631;1259;74847;-56
2023/04/16 02:51:22;;;;;;;7.60;4.60;;;;;;;3.04;100.00;101414.19;105854;1254;68430;-56
2023/04/16 02:53:51;;;;;;;10.90;5.50;;;;;;;3.06;100.00;101415.95;105644;1254;73562;-55
2023/04/16 02:56:20;;;;;;;7.90;4.80;;;;;;;3.08;100.00;101413.77;105619;1254;62779;-55
2023/04/16 02:58:49;;;;;;;8.90;5.20;;;;;;;3.11;100.00;101415.95;105773;1255;60415;-55
2023/04/16 03:01:18;;;;;;;8.10;5.00;;;;;;;3.17;100.00;101415.69;105666;1259;74706;-56
2023/04/16 03:03:46;;;;;;;8.90;5.40;;;;;;;3.27;100.00;101415.91;105575;1260;68596;-57
2023/04/16 03:06:15;;;;;;;13.80;5.70;;;;;;;3.39;100.00;101414.85;105487;1257;74665;-56
2023/04/16 03:08:44;;;;;;;12.10;5.50;;;;;;;3.52;100.00;101419.95;106044;1254;61723;-56
2023/04/16 03:11:13;;;;;;;13.70;5.80;;;;;;;3.66;100.00;101419.98;105876;1254;61165;-55
2023/04/16 03:13:42;;;;;;;12.60;6.40;;;;;;;3.81;100.00;101418.60;105698;1255;74919;-55
2023/04/16 03:16:11;;;;;;;9.50;5.70;;;;;;;3.94;100.00;101418.81;105585;1254;68806;-55
2023/04/16 03:18:40;;;;;;;11.90;5.50;;;;;;;4.07;100.00;101415.98;105534;1260;74663;-56
2023/04/16 03:21:08;;;;;;;8.10;5.10;;;;;;;4.28;100.00;101415.65;105716;1257;61753;-57
2023/04/16 03:23:38;;;;;;;12.70;6.50;;;;;;;4.49;100.00;101414.64;105752;1258;61861;-56
2023/04/16 03:26:06;;;;;;;8.00;4.90;;;;;;;4.69;100.00;101411.52;105462;1257;74674;-56
2023/04/16 03:28:36;;;;;;;7.80;5.00;;;;;;;4.92;100.00;101407.02;105577;1255;67650;-56
2023/04/16 03:31:04;;;;;;;10.80;4.70;;;;;;;5.14;100.00;101404.67;105746;1259;74114;-59
2023/04/16 03:33:34;;;;;;;8.10;4.90;;;;;;;5.25;100.00;101401.68;105607;1257;61299;-56
2023/04/16 03:36:03;;;;;;;9.30;5.30;;;;;;;5.27;100.00;101400.34;105722;1257;61690;-56
2023/04/16 03:38:32;;;;;;;8.30;4.60;;;;;;;5.30;100.00;101400.64;105635;1254;75333;-56
2023/04/16 03:41:05;;;;;;;7.40;4.60;;;;;;;5.38;100.00;101395.89;105693;1259;68749;-56
2023/04/16 03:43:34;;;;;;;9.50;5.20;;;;;;;5.46;100.00;101389.16;105621;1256;74039;-56
2023/04/16 03:46:03;;;;;;;10.40;5.40;;;;;;;5.62;100.00;101391.52;105829;1254;60653;-56
2023/04/16 03:48:32;;;;;;;9.70;4.80;;;;;;;5.92;100.00;101390.16;105879;1255;60593;-56
2023/04/16 03:51:01;;;;;;;8.30;5.00;;;;;;;6.26;100.00;101388.60;105980;1256;73413;-59
2023/04/16 03:53:30;;;;;;;9.00;5.70;;;;;;;6.57;100.00;101385.16;105521;1260;68038;-56
2023/04/16 03:55:58;;;;;;;9.70;5.60;;;;;;;6.99;100.00;101383.84;105847;1254;74210;-56
2023/04/16 03:58:28;;;;;;;7.10;4.40;;;;;;;7.41;100.00;101384.69;105760;1254;62369;-56
2023/04/16 04:00:57;;;;;;;9.40;4.80;;;;;;;7.71;100.00;101383.77;105755;1258;61366;-57
2023/04/16 04:03:27;;;;;;;7.20;5.10;;;;;;;7.72;100.00;101377.09;105573;1258;74204;-57
2023/04/16 04:05:56;;;;;;;8.00;5.10;;;;;;;7.53;100.00;101378.98;105473;1257;69276;-55
2023/04/16 04:08:27;;;;;;;8.50;5.20;;;;;;;7.28;100.00;101378.17;105484;1261;73048;-55
2023/04/16 04:10:56;;;;;;;7.80;4.20;;;;;;;7.09;100.00;101384.30;105759;1254;61161;-56
2023/04/16 04:13:26;;;;;;;8.30;4.60;;;;;;;6.97;100.00;101387.96;105830;1254;61577;-56
2023/04/16 04:15:54;;;;;;;7.50;5.30;;;;;;;6.86;100.00;101388.60;105543;1256;75290;-54
2023/04/16 04:18:23;;;;;;;8.30;4.60;;;;;;;6.75;100.00;101396.72;105694;1259;68562;-55
2023/04/16 04:20:52;;;;;;;8.90;4.50;;;;;;;6.64;100.00;101396.34;105398;1255;74235;-58
2023/04/16 04:23:23;;;;;;;8.90;4.60;;;;;;;6.62;100.00;101400.98;105767;1254;62502;-58
2023/04/16 04:25:52;;;;;;;7.80;4.20;;;;;;;6.73;100.00;101400.94;105694;1254;61941;-58
2023/04/16 04:28:21;;;;;;;8.50;4.40;;;;;;;6.99;100.00;101403.39;105664;1257;75389;-56
2023/04/16 04:30:49;;;;;;;7.40;4.30;;;;;;;7.33;100.00;101406.28;105708;1254;68649;-57
2023/04/16 04:33:18;;;;;;;9.70;6.00;;;;;;;7.71;100.00;101406.80;105577;1257;74239;-56
2023/04/16 04:35:48;;;;;;;9.60;5.10;;;;;;;8.12;100.00;101406.38;105789;1256;60511;-56
2023/04/16 04:38:18;;;;;;;9.30;4.30;;;;;;;8.59;100.00;101406.06;105652;1254;61507;-56
2023/04/16 04:40:48;;;;;;;8.70;4.40;;;;;;;9.09;100.00;101403.36;105477;1257;74055;-56
2023/04/16 04:43:17;;;;;;;10.70;5.20;;;;;;;9.37;100.00;101399.27;105721;1254;67297;-58
2023/04/16 04:45:47;;;;;;;9.30;4.60;;;;;;;9.56;100.00;101405.98;105866;1259;73022;-56
2023/04/16 04:48:17;;;;;;;12.80;11.20;;;;;;;9.74;100.00;101405.27;105535;1257;61154;-57
2023/04/16 04:50:46;;;;;;;11.30;5.00;;;;;;;9.94;100.00;101408.09;105493;1254;62053;-57
2023/04/16 04:53:16;;;;;;;9.10;4.60;;;;;;;9.97;100.00;101406.05;105465;1259;75145;-56
2023/04/16 04:55:44;;;;;;;6.90;3.70;;;;;;;9.91;100.00;101404.77;105713;1259;67694;-56
2023/04/16 04:58:13;;;;;;;7.70;4.20;;;;;;;9.91;100.00;101406.98;105777;1258;73197;-57
2023/04/16 05:00:42;;;;;;;6.40;3.80;;;;;;;9.97;100.00;101409.34;105467;1257;61647;-55
2023/04/16 05:03:11;;;;;;;27.00;21.90;;;;;;;9.92;100.00;101407.41;105552;1260;61297;-55
2023/04/16 05:05:40;;;;;;;8.30;4.50;;;;;;;9.96;100.00;101410.38;105653;1259;74415;-54
2023/04/16 05:08:09;;;;;;;6.30;3.70;;;;;;;10.04;100.00;101410.70;105838;1259;67238;-55
2023/04/16 05:10:37;;;;;;;10.20;4.20;;;;;;;9.92;100.00;101412.13;105844;1258;73002;-56
2023/04/16 05:13:06;;;;;;;7.20;3.50;;;;;;;9.78;100.00;101409.70;105740;1255;60998;-56
2023/04/16 05:15:35;;;;;;;13.20;8.30;;;;;;;9.67;100.00;101415.48;105728;1257;61703;-55
2023/04/16 05:18:04;;;;;;;9.00;4.10;;;;;;;9.58;100.00;101411.36;105593;1257;74569;-54
2023/04/16 05:20:33;;;;;;;5.80;3.10;;;;;;;9.57;100.00;101411.75;106250;1255;68603;-59
2023/04/16 05:23:01;;;;;;;9.90;3.80;;;;;;;9.61;100.00;101418.95;105758;1256;74362;-58
2023/04/16 05:25:30;;;;;;;8.60;3.90;;;;;;;9.56;100.00;101408.21;105542;1255;61391;-55
2023/04/16 05:27:58;;;;;;;6.00;3.50;;;;;;;9.48;100.00;101410.80;105739;1256;61792;-56
2023/04/16 05:30:27;;;;;;;8.20;4.00;;;;;;;9.53;100.00;101413.86;105901;1254;74343;-58
2023/04/16 05:32:56;;;;;;;6.30;3.80;;;;;;;9.57;100.00;101407.45;105414;1257;68589;-56
2023/04/16 05:35:25;;;;;;;8.50;3.80;;;;;;;9.58;100.00;101408.38;105654;1259;73723;-55
2023/04/16 05:37:54;;;;;;;7.10;2.90;;;;;;;9.51;100.00;101410.25;105711;1259;61017;-57
2023/04/16 05:40:23;;;;;;;7.90;3.40;;;;;;;9.49;100.00;101418.73;105718;1254;61603;-56
2023/04/16 05:42:51;;;;;;;8.60;4.00;;;;;;;9.56;100.00;101412.56;106063;1259;75326;-56
2023/04/16 05:45:19;;;;;;;8.30;3.70;;;;;;;9.66;100.00;101409.10;105688;1256;67135;-57
2023/04/16 05:47:48;;;;;;;9.50;3.50;;;;;;;9.83;100.00;101419.27;105662;1257;74179;-56
2023/04/16 05:50:16;;;;;;;11.70;3.90;;;;;;;9.90;100.00;101418.56;105728;1254;61880;-55
2023/04/16 05:52:45;;;;;;;11.20;6.10;;;;;;;9.84;100.00;101417.11;105747;1259;60839;-56
2023/04/16 05:55:14;;;;;;;9.40;4.80;;;;;;;9.79;100.00;101418.78;105911;1255;73359;-57
2023/04/16 05:57:42;;;;;;;98.80;63.90;;;;;;;9.81;100.00;101427.30;105503;1257;69345;-56
2023/04/16 06:00:11;;;;;;;8.60;4.30;;;;;;;9.97;100.00;101420.37;105711;1259;73115;-56
2023/04/16 06:02:40;;;;;;;9.20;3.80;;;;;;;10.16;100.00;101424.73;105745;1256;61235;-55
2023/04/16 06:05:09;;;;;;;9.60;4.30;;;;;;;10.39;100.00;101419.31;105997;1259;60460;-59
2023/04/16 06:07:38;;;;;;;10.10;3.30;;;;;;;10.68;100.00;101424.93;105490;1258;74099;-57
2023/04/16 06:10:07;;;;;;;10.80;3.10;;;;;;;10.93;100.00;101429.18;105659;1257;67788;-56
2023/04/16 06:12:36;;;;;;;6.80;3.30;;;;;;;10.96;99.72;101430.47;105675;1256;74286;-56
2023/04/16 06:15:05;;;;;;;7.20;3.30;;;;;;;10.90;99.58;101428.13;106033;1257;61863;-59
2023/04/16 06:17:35;;;;;;;8.80;3.90;;;;;;;10.94;100.00;101421.83;105762;1259;61096;-56
2023/04/16 06:20:05;;;;;;;6.40;3.60;;;;;;;11.08;100.00;101421.63;105858;1256;75254;-56
2023/04/16 06:22:33;;;;;;;5.80;2.90;;;;;;;11.17;99.95;101423.73;105716;1254;68082;-56
2023/04/16 06:25:02;;;;;;;6.10;2.90;;;;;;;11.12;95.37;101438.90;105675;1257;74004;-56
2023/04/16 06:27:30;;;;;;;7.80;3.40;;;;;;;10.88;94.49;101434.25;105578;1259;60659;-57
2023/04/16 06:29:59;;;;;;;20.70;13.10;;;;;;;10.67;97.10;101439.13;105716;1257;60598;-56
2023/04/16 06:32:29;;;;;;;8.80;4.40;;;;;;;10.64;99.91;101438.73;105605;1257;74366;-56
2023/04/16 06:34:58;;;;;;;7.70;3.60;;;;;;;10.82;100.00;101430.99;105688;1258;68610;-55
2023/04/16 06:37:26;;;;;;;7.00;3.10;;;;;;;11.14;100.00;101436.41;105739;1259;74390;-56
2023/04/16 06:39:55;;;;;;;5.50;2.50;;;;;;;11.50;100.00;101429.92;105716;1259;60743;-56
2023/04/16 06:42:24;;;;;;;5.00;2.60;;;;;;;11.85;97.97;101439.17;105753;1256;61714;-55
2023/04/16 06:44:52;;;;;;;8.60;3.50;;;;;;;12.05;91.84;101435.98;105831;1258;75390;-57
2023/04/16 06:47:21;;;;;;;8.30;5.50;;;;;;;12.08;88.60;101430.63;105900;1258;66593;-59
2023/04/16 06:49:49;;;;;;;7.10;2.90;;;;;;;12.17;92.12;101433.86;105393;1254;74414;-56
2023/04/16 06:52:18;;;;;;;6.20;2.70;;;;;;;12.24;90.04;101426.87;105668;1256;62027;-55
2023/04/16 06:54:47;;;;;;;6.80;3.70;;;;;;;12.28;94.55;101426.89;105684;1256;62123;-55
2023/04/16 06:57:15;;;;;;;5.00;2.50;;;;;;;12.53;92.28;101426.63;105686;1254;75427;-58
2023/04/16 06:59:44;;;;;;;6.20;2.20;;;;;;;12.96;89.25;101423.35;105621;1256;68944;-56
2023/04/16 07:02:13;;;;;;;4.90;2.00;;;;;;;13.31;74.64;101425.14;105874;1256;73992;-57
2023/04/16 07:04:41;;;;;;;5.00;2.00;;;;;;;13.30;67.89;101420.92;105480;1254;61831;-55
2023/04/16 07:07:11;;;;;;;5.50;2.30;;;;;;;13.29;68.69;101421.42;105673;1258;61247;-57
2023/04/16 07:09:40;;;;;;;3.00;1.50;;;;;;;13.34;64.92;101425.15;105762;1258;76055;-55
2023/04/16 07:12:10;;;;;;;3.40;1.80;;;;;;;13.39;63.07;101424.09;105686;1259;67614;-56
2023/04/16 07:14:40;;;;;;;4.70;2.10;;;;;;;13.49;61.79;101427.33;105698;1259;74132;-57
2023/04/16 07:17:08;;;;;;;5.80;1.90;;;;;;;13.48;60.11;101427.95;105896;1258;60528;-59
2023/04/16 07:19:37;;;;;;;4.40;1.80;;;;;;;13.42;60.80;101421.31;105370;1256;61551;-56
2023/04/16 07:22:06;;;;;;;4.00;1.70;;;;;;;13.48;60.61;101417.02;105784;1256;75349;-56
2023/04/16 07:24:34;;;;;;;3.70;1.90;;;;;;;13.54;62.12;101416.79;105349;1257;68408;-56
2023/04/16 07:27:03;;;;;;;3.70;2.20;;;;;;;13.78;62.49;101411.64;105902;1259;72462;-56
2023/04/16 07:29:31;;;;;;;4.00;1.90;;;;;;;14.16;59.88;101412.45;105428;1254;62664;-56
2023/04/16 07:32:00;;;;;;;5.60;2.60;;;;;;;14.28;56.87;101406.54;105626;1258;60802;-56
2023/04/16 07:34:29;;;;;;;5.90;2.60;;;;;;;14.28;56.13;101410.05;105861;1259;74388;-58
2023/04/16 07:36:58;;;;;;;6.80;2.10;;;;;;;14.10;54.95;101417.04;105486;1259;66771;-56
2023/04/16 07:39:27;;;;;;;4.50;2.50;;;;;;;13.50;55.26;101410.94;105674;1268;74251;-56
2023/04/16 07:41:55;;;;;;;7.70;2.80;;;;;;;12.84;59.14;101416.95;105756;1259;60745;-55
2023/04/16 07:44:24;;;;;;;4.20;2.00;;;;;;;12.37;66.54;101415.27;105878;1256;61855;-56
2023/04/16 07:46:53;;;;;;;4.50;2.10;;;;;;;12.04;70.00;101417.30;105326;1257;74769;-56
2023/04/16 07:49:21;;;;;;;3.50;1.80;;;;;;;11.85;71.39;101413.50;105723;1257;68351;-57
2023/04/16 07:51:50;;;;;;;3.80;1.90;;;;;;;11.82;74.99;101422.37;105430;1259;74329;-55
2023/04/16 07:54:19;;;;;;;4.40;2.00;;;;;;;11.91;79.12;101416.52;105667;1254;62282;-55
2023/04/16 07:56:48;;;;;;;3.30;1.90;;;;;;;12.16;84.15;101406.38;105816;1259;61917;-59
2023/04/16 07:59:17;;;;;;;5.60;1.90;;;;;;;12.55;83.56;101408.15;105897;1258;75374;-57
2023/04/16 08:01:51;;;;;;;8.20;2.50;;;;;;;12.81;73.51;101408.33;105435;1257;67888;-56
2023/04/16 08:04:23;;;;;;;4.90;2.00;;;;;;;12.85;69.47;101401.98;105644;1257;74521;-56
2023/04/16 08:06:53;;;;;;;4.50;1.90;;;;;;;12.84;72.14;101406.94;105702;1258;61781;-58
2023/04/16 08:09:25;;;;;;;5.20;2.00;;;;;;;12.98;75.56;101404.04;105780;1256;61633;-56
2023/04/16 08:11:53;;;;;;;5.40;2.10;;;;;;;13.21;70.59;101394.51;105577;1257;74335;-56
2023/04/16 08:14:22;;;;;;;5.30;2.30;;;;;;;13.37;68.09;101396.44;105665;1257;68266;-56
2023/04/16 08:16:51;;;;;;;4.90;1.90;;;;;;;13.44;68.42;101386.54;105759;1257;73936;-57
2023/04/16 08:19:19;;;;;;;5.10;2.40;;;;;;;13.61;66.09;101387.33;105604;1259;62441;-56
2023/04/16 08:21:48;;;;;;;5.30;2.30;;;;;;;13.64;64.14;101399.27;105853;1257;62358;-56
2023/04/16 08:24:16;;;;;;;6.00;2.10;;;;;;;13.60;64.85;101385.38;105734;1259;75556;-55
2023/04/16 08:26:45;;;;;;;7.30;2.80;;;;;;;13.70;66.79;101385.46;105880;1259;67868;-59
2023/04/16 08:29:13;;;;;;;8.40;2.60;;;;;;;13.90;63.90;101370.29;105890;1257;73817;-57
2023/04/16 08:31:42;;;;;;;4.60;2.50;;;;;;;14.09;65.05;101375.54;105609;1259;62589;-56
2023/04/16 08:34:11;;;;;;;5.30;2.90;;;;;;;14.24;63.60;101379.59;105497;1257;61640;-55
2023/04/16 08:36:40;;;;;;;5.60;2.60;;;;;;;14.28;61.18;101368.89;105693;1257;75369;-56
2023/04/16 08:39:09;;;;;;;5.30;2.90;;;;;;;14.23;61.01;101374.80;105394;1259;67886;-58
2023/04/16 08:41:41;;;;;;;7.40;3.10;;;;;;;14.16;61.00;101381.55;105761;1257;73529;-58
2023/04/16 08:44:16;;;;;;;5.90;2.40;;;;;;;14.07;60.55;101372.07;105620;1260;62233;-56
2023/04/16 08:46:44;;;;;;;6.90;3.40;;;;;;;13.99;62.61;101370.81;105594;1257;60342;-55
2023/04/16 08:49:16;;;;;;;10.70;4.60;;;;;;;13.98;64.18;101369.49;105486;1260;75492;-55
2023/04/16 08:51:50;;;;;;;10.50;5.50;;;;;;;14.06;69.45;101369.19;105619;1255;68054;-55
2023/04/16 08:54:46;;;;;;;8.40;3.90;;;;;;;14.30;64.07;101376.88;105601;1259;74273;-55
2023/04/16 08:57:27;;;;;;;6.40;3.50;;;;;;;14.41;61.63;101360.98;105327;1260;60800;-56
2023/04/16 08:59:56;;;;;;;9.20;4.90;;;;;;;14.46;61.72;101354.27;105758;1256;61838;-56
2023/04/16 09:02:25;;;;;;;9.30;4.00;;;;;;;14.53;59.22;101360.67;105864;1254;75305;-58
2023/04/16 09:04:54;;;;;;;7.80;3.20;;;;;;;14.46;57.09;101356.34;105853;1258;68318;-56
2023/04/16 09:07:22;;;;;;;10.30;4.50;;;;;;;14.39;59.91;101347.73;105714;1256;74194;-58
2023/04/16 09:09:52;;;;;;;8.50;3.50;;;;;;;14.44;57.47;101349.67;105547;1260;61014;-55
2023/04/16 09:12:22;;;;;;;7.30;3.30;;;;;;;14.40;57.66;101351.55;105949;1259;60821;-59
2023/04/16 09:14:51;;;;;;;7.10;2.90;;;;;;;14.44;59.64;101337.36;105402;1259;74565;-57
2023/04/16 09:17:20;;;;;;;5.90;3.20;;;;;;;14.53;62.57;101338.76;105444;1256;291891;-56
2023/04/16 09:19:48;;;;;;;7.20;2.90;;;;;;;14.60;59.74;101335.10;105493;1260;74176;-56
2023/04/16 09:22:17;;;;;;;6.80;2.90;;;;;;;14.68;58.83;101329.49;105772;1259;61894;-57
2023/04/16 09:24:46;;;;;;;6.10;3.00;;;;;;;14.76;59.06;101331.75;105719;1259;60431;-55
2023/04/16 09:27:15;;;;;;;8.40;3.00;;;;;;;14.89;60.48;101327.61;105719;1259;75225;-55
2023/04/16 09:29:45;;;;;;;5.50;2.30;;;;;;;14.98;55.41;101329.16;105410;1262;67670;-54
2023/04/16 09:32:13;;;;;;;8.10;4.10;;;;;;;14.88;57.58;101318.84;106009;1259;74398;-58
2023/04/16 09:34:55;;;;;;;6.70;2.70;;;;;;;14.98;56.81;101329.52;105525;1259;60727;-56
2023/04/16 09:37:30;;;;;;;6.20;2.50;;;;;;;14.98;56.02;101331.23;105651;1254;62001;-56
2023/04/16 09:40:02;;;;;;;5.50;3.00;;;;;;;15.07;59.05;101334.74;105853;1254;75476;-58
2023/04/16 09:42:33;;;;;;;8.80;3.40;;;;;;;15.22;57.38;101326.77;105612;1259;67267;-56
2023/04/16 09:45:02;;;;;;;6.50;2.20;;;;;;;15.35;55.31;101340.44;105668;1259;74471;-55
2023/04/16 09:47:43;;;;;;;;;;;;;;;15.33;51.37;101340.51;105684;1260;60709;-56
2023/04/16 09:50:16;;;;;;;4.50;2.30;;;;;;;15.21;49.90;101338.77;105859;1259;60543;-55
2023/04/16 09:52:52;;;;;;;5.60;3.20;;;;;;;15.10;51.60;101335.39;105675;1259;73753;-56
2023/04/16 09:55:22;;;;;;;7.00;2.90;;;;;;;15.15;51.64;101328.19;105675;1258;67570;-55
2023/04/16 09:57:59;;;;;;;3.00;2.00;;;;;;;15.22;50.93;101328.35;105745;1267;74417;-55
2023/04/16 10:00:29;;;;;;;8.70;3.00;;;;;;;15.20;49.77;101334.48;105675;1260;61446;-56
2023/04/16 10:03:06;;;;;;;5.20;1.90;;;;;;;15.12;47.85;101338.11;105777;1257;61825;-55
2023/04/16 10:05:36;;;;;;;4.00;2.00;;;;;;;14.98;47.67;101334.57;105877;1259;75550;-58
2023/04/16 10:08:12;;;;;;;13.40;6.50;;;;;;;14.86;49.54;101329.56;105581;1259;66949;-56
2023/04/16 10:10:40;;;;;;;6.30;4.00;;;;;;;14.92;52.68;101328.36;105685;1260;74174;-56
2023/04/16 10:13:09;;;;;;;13.30;6.70;;;;;;;15.11;52.46;101318.27;106058;1254;60638;-59
2023/04/16 10:15:37;;;;;;;4.60;2.90;;;;;;;15.27;50.83;101323.65;105626;1260;60628;-56
2023/04/16 10:18:06;;;;;;;9.70;4.30;;;;;;;15.27;45.77;101330.63;105296;1260;75302;-56
2023/04/16 10:20:35;;;;;;;11.20;4.10;;;;;;;15.19;45.40;101326.80;105668;1260;67787;-56
2023/04/16 10:23:04;;;;;;;6.20;2.90;;;;;;;15.25;46.39;101329.36;105634;1255;73146;-59
2023/04/16 10:25:32;;;;;;;7.10;3.00;;;;;;;15.36;46.85;101325.73;105816;1260;60866;-59
2023/04/16 10:28:01;;;;;;;5.20;2.90;;;;;;;15.49;48.05;101325.45;105593;1263;60927;-56
2023/04/16 10:30:29;;;;;;;5.30;2.60;;;;;;;15.58;49.45;101332.73;105623;1257;74363;-57
2023/04/16 10:32:58;;;;;;;6.90;2.40;;;;;;;15.48;47.41;101328.95;105308;1260;68587;-53
2023/04/16 10:35:28;;;;;;;4.70;2.10;;;;;;;15.31;48.68;101316.84;105515;1259;73384;-58
2023/04/16 10:38:17;;;;;;;7.70;3.40;;;;;;;15.28;48.57;101314.42;105613;1258;62273;-55
2023/04/16 10:40:45;;;;;;;7.50;3.60;;;;;;;15.35;49.43;101315.67;105313;1260;60573;-57
2023/04/16 10:43:18;;;;;;;8.10;3.80;;;;;;;15.54;46.82;101317.54;105519;1259;74447;-56
2023/04/16 10:45:47;;;;;;;6.10;2.50;;;;;;;15.61;46.67;101311.60;105672;1258;68583;-56
2023/04/16 10:48:19;;;;;;;4.10;1.90;;;;;;;15.66;46.53;101318.78;105840;1258;74243;-58
2023/04/16 10:50:55;;;;;;;4.60;2.70;;;;;;;15.55;45.59;101311.35;105672;1254;62135;-58
2023/04/16 10:53:25;;;;;;;3.90;1.80;;;;;;;15.39;44.77;101319.46;105675;1259;61591;-55
2023/04/16 10:56:03;;;;;;;5.60;2.00;;;;;;;15.16;44.72;101309.95;105687;1260;74001;-56
2023/04/16 10:58:34;;;;;;;6.40;3.70;;;;;;;14.96;45.21;101317.14;105966;1259;69485;-56
2023/04/16 11:01:11;;;;;;;13.80;6.80;;;;;;;14.92;46.11;101302.11;105733;1259;72997;-58
2023/04/16 11:03:43;;;;;;;4.90;3.40;;;;;;;15.08;46.73;101293.50;105622;1260;60987;-57
2023/04/16 11:06:15;;;;;;;5.70;2.30;;;;;;;15.23;47.01;101292.08;105807;1254;61932;-56
2023/04/16 11:08:47;;;;;;;5.60;2.80;;;;;;;15.36;44.62;101298.71;105653;1259;75344;-56
2023/04/16 11:11:22;;;;;;;8.60;3.80;;;;;;;15.47;43.25;101295.12;105560;1260;67953;-57
2023/04/16 11:13:54;;;;;;;7.20;2.50;;;;;;;15.49;43.47;101299.75;105876;1259;74188;-58
2023/04/16 11:16:23;;;;;;;7.00;2.60;;;;;;;15.53;43.69;101305.14;105770;1267;62246;-57
2023/04/16 11:18:52;;;;;;;7.80;3.10;;;;;;;15.52;42.47;101301.54;105426;1255;60415;-56
2023/04/16 11:21:23;;;;;;;6.80;3.60;;;;;;;15.43;42.87;101288.52;105519;1267;75408;-57
2023/04/16 11:23:52;;;;;;;4.30;1.90;;;;;;;15.52;43.50;101285.22;105459;1262;69814;-56
2023/04/16 11:26:27;;;;;;;5.30;1.80;;;;;;;15.65;42.78;101291.91;105794;1260;73204;-56
2023/04/16 11:28:56;;;;;;;3.80;1.60;;;;;;;15.53;42.27;101276.20;105723;1259;61650;-56